Time;durP1;ratioP1;P1;durP2;ratioP2;P2;SDS_P1;SDS_P2;PMS_P1;PMS_P2;Temp;Humidity;BMP_temperature;BMP_pressure;BME280_temperature;BME280_humidity;BME280_pressure;Samples;Min_cycle;Max_cycle;Signal;HPM_P1;HPM_P2
2021/07/01 00:00:51;;;;;;;14.35;5.32;;;;;;;18.36;64.14;100536.78;4981478;28;20078;-64
2021/07/01 00:03:18;;;;;;;11.95;5.75;;;;;;;18.34;64.16;100544.78;4991085;28;20093;-62
2021/07/01 00:05:45;;;;;;;18.80;6.13;;;;;;;18.28;64.08;100534.81;4983835;28;20153;-60
2021/07/01 00:08:12;;;;;;;11.90;5.78;;;;;;;18.34;64.08;100547.63;4993451;28;20133;-59
2021/07/01 00:10:39;;;;;;;14.30;5.60;;;;;;;18.26;64.28;100523.03;4993644;28;20133;-60
2021/07/01 00:13:06;;;;;;;14.82;6.47;;;;;;;18.35;64.04;100543.63;4991550;28;20511;-59
2021/07/01 00:15:34;;;;;;;15.30;5.72;;;;;;;18.37;63.97;100532.81;4987244;28;20129;-59
2021/07/01 00:18:03;;;;;;;12.98;6.00;;;;;;;18.34;64.11;100533.47;4993573;28;20140;-58
2021/07/01 00:20:30;;;;;;;12.15;7.13;;;;;;;18.28;64.07;100526.31;4978685;28;20134;-62
2021/07/01 00:22:57;;;;;;;14.88;5.47;;;;;;;18.29;64.19;100534.50;4992348;28;20074;-59
2021/07/01 00:25:24;;;;;;;14.30;7.30;;;;;;;18.24;63.93;100529.81;4986603;28;20133;-58
2021/07/01 00:27:52;;;;;;;15.02;6.25;;;;;;;18.23;64.30;100514.03;4994098;28;20226;-60
2021/07/01 00:30:20;;;;;;;9.98;6.05;;;;;;;18.22;64.29;100518.03;4985193;28;20488;-60
2021/07/01 00:32:48;;;;;;;10.82;5.93;;;;;;;18.18;64.42;100524.66;4982009;28;20129;-60
2021/07/01 00:35:15;;;;;;;14.50;6.00;;;;;;;18.15;64.35;100523.34;5001461;28;20471;-60
2021/07/01 00:37:43;;;;;;;11.50;5.68;;;;;;;18.11;64.00;100519.50;4991838;28;20460;-60
2021/07/01 00:40:13;;;;;;;13.40;7.03;;;;;;;18.00;64.27;100515.34;4978490;28;20186;-61
2021/07/01 00:42:40;;;;;;;17.00;7.10;;;;;;;18.01;64.12;100502.88;4985429;28;20297;-59
2021/07/01 00:45:08;;;;;;;11.85;6.03;;;;;;;18.19;64.09;100527.16;4993672;28;20074;-59
2021/07/01 00:47:36;;;;;;;12.82;6.35;;;;;;;18.20;64.05;100525.16;4991838;28;20136;-60
2021/07/01 00:50:08;;;;;;;11.55;5.55;;;;;;;18.17;64.00;100515.34;4986065;28;20146;-60
2021/07/01 00:52:36;;;;;;;11.50;5.80;;;;;;;18.22;64.23;100529.34;4975915;28;20137;-59
2021/07/01 00:55:05;;;;;;;11.10;5.07;;;;;;;18.20;64.41;100520.34;4993731;28;20471;-59
2021/07/01 00:57:33;;;;;;;14.57;6.22;;;;;;;18.21;64.12;100522.00;4992326;28;20054;-59
2021/07/01 01:00:03;;;;;;;12.95;5.97;;;;;;;18.12;63.94;100507.06;4978013;28;20061;-60
2021/07/01 01:02:31;;;;;;;12.93;7.03;;;;;;;18.22;64.39;100529.34;4992894;28;20149;-60
2021/07/01 01:04:58;;;;;;;14.85;6.45;;;;;;;18.23;64.25;100533.81;4992859;28;20459;-59
2021/07/01 01:07:25;;;;;;;16.48;7.25;;;;;;;18.21;64.25;100524.00;4985864;28;20094;-62
2021/07/01 01:09:52;;;;;;;14.40;6.10;;;;;;;18.13;64.30;100500.22;4975243;28;20074;-63
2021/07/01 01:12:19;;;;;;;12.15;5.90;;;;;;;18.29;64.56;100522.31;4979674;28;20073;-61
2021/07/01 01:14:45;;;;;;;19.70;6.57;;;;;;;18.30;64.01;100524.00;4994099;28;20073;-63
2021/07/01 01:17:13;;;;;;;12.98;6.25;;;;;;;18.25;64.57;100519.34;4993973;28;20074;-61
2021/07/01 01:19:40;;;;;;;14.40;6.35;;;;;;;18.33;64.23;100532.66;4988521;28;20404;-61
2021/07/01 01:22:07;;;;;;;13.23;5.88;;;;;;;18.34;64.45;100519.34;4984736;28;20073;-61
2021/07/01 01:24:34;;;;;;;13.60;7.20;;;;;;;18.38;64.35;100517.50;4985375;28;20460;-59
2021/07/01 01:27:01;;;;;;;17.90;7.32;;;;;;;18.41;64.53;100516.84;4983654;28;20138;-59
2021/07/01 01:29:28;;;;;;;12.68;6.55;;;;;;;18.48;64.43;100522.81;4975358;28;20046;-57
2021/07/01 01:31:55;;;;;;;15.32;6.63;;;;;;;18.42;64.44;100515.66;4985793;28;20042;-58
2021/07/01 01:34:22;;;;;;;9.73;6.70;;;;;;;18.39;64.42;100520.00;4978393;28;20134;-59
2021/07/01 01:36:49;;;;;;;12.13;7.32;;;;;;;18.05;64.34;100446.53;4984066;28;20146;-60
2021/07/01 01:39:19;;;;;;;11.95;6.97;;;;;;;18.19;64.04;100481.94;4986129;28;20161;-59
2021/07/01 01:41:45;;;;;;;;;;;;;;;18.40;64.00;100515.19;4988651;28;20073;-60
2021/07/01 01:44:12;;;;;;;13.45;6.68;;;;;;;18.40;63.82;100515.19;4991865;28;19928;-60
2021/07/01 01:46:40;;;;;;;11.05;6.30;;;;;;;18.46;64.18;100513.81;4991889;28;20125;-60
2021/07/01 01:49:08;;;;;;;16.38;6.55;;;;;;;18.47;63.85;100522.00;4985870;28;20127;-61
2021/07/01 01:51:36;;;;;;;11.48;7.63;;;;;;;18.48;63.92;100511.50;4988750;28;20070;-61
2021/07/01 01:54:05;;;;;;;12.30;6.65;;;;;;;18.43;63.80;100491.91;4993524;28;20422;-61
2021/07/01 01:56:38;;;;;;;10.23;6.20;;;;;;;18.53;63.76;100502.00;4991465;28;20081;-61
2021/07/01 01:59:05;;;;;;;14.85;6.95;;;;;;;18.56;63.70;100502.16;4978021;28;20125;-61
2021/07/01 02:01:32;;;;;;;10.13;6.13;;;;;;;18.50;64.15;100497.88;4980825;28;20133;-61
2021/07/01 02:04:15;;;;;;;13.13;7.13;;;;;;;18.50;64.03;100497.03;5004784;28;20124;-62
2021/07/01 02:06:42;;;;;;;11.45;6.28;;;;;;;18.52;64.14;100515.31;4983378;28;20043;-63
2021/07/01 02:09:09;;;;;;;16.25;7.18;;;;;;;18.48;63.93;100500.19;4991367;28;20733;-62
2021/07/01 02:11:36;;;;;;;13.85;7.13;;;;;;;18.53;64.17;100514.19;4990690;28;20128;-60
2021/07/01 02:14:03;;;;;;;16.75;7.65;;;;;;;18.54;63.70;100510.16;4981189;28;20137;-62
2021/07/01 02:16:29;;;;;;;14.32;6.95;;;;;;;18.50;63.86;100503.53;4989809;28;20050;-61
2021/07/01 02:18:56;;;;;;;15.75;6.68;;;;;;;18.56;63.98;100519.13;4991044;28;20133;-63
2021/07/01 02:21:23;;;;;;;16.33;7.80;;;;;;;18.57;63.74;100509.50;4987348;28;20555;-62
2021/07/01 02:23:50;;;;;;;11.52;6.07;;;;;;;18.50;63.89;100505.53;4974417;28;20133;-62
2021/07/01 02:26:17;;;;;;;14.23;6.70;;;;;;;18.55;63.90;100502.50;4986051;28;20082;-64
2021/07/01 02:28:44;;;;;;;13.68;6.68;;;;;;;18.54;63.64;100496.03;4992569;28;20443;-64
2021/07/01 02:31:11;;;;;;;12.50;7.03;;;;;;;18.53;63.83;100485.91;4981255;28;20058;-62
2021/07/01 02:33:38;;;;;;;17.45;6.93;;;;;;;18.30;63.80;100453.34;4993045;28;20046;-66
2021/07/01 02:36:06;;;;;;;15.75;6.35;;;;;;;18.60;63.55;100508.84;4990083;28;20050;-63
2021/07/01 02:38:33;;;;;;;16.80;7.05;;;;;;;18.54;63.83;100506.53;4992374;28;20165;-62
2021/07/01 02:41:00;;;;;;;15.38;7.38;;;;;;;18.39;63.47;100480.44;4980706;28;20100;-63
2021/07/01 02:43:27;;;;;;;14.80;6.68;;;;;;;18.42;63.60;100495.88;4988235;28;20082;-63
2021/07/01 02:45:54;;;;;;;14.00;6.72;;;;;;;18.53;63.74;100511.34;4982469;28;20066;-63
2021/07/01 02:48:20;;;;;;;15.75;7.25;;;;;;;18.52;63.86;100506.84;4990195;28;20133;-62
2021/07/01 02:50:48;;;;;;;20.10;8.25;;;;;;;18.37;63.57;100470.63;4987848;28;20051;-63
2021/07/01 02:53:15;;;;;;;19.15;8.23;;;;;;;18.41;63.76;100482.91;4992171;28;20482;-64
2021/07/01 02:55:41;;;;;;;12.05;6.47;;;;;;;18.30;63.83;100475.94;4980590;28;20089;-61
2021/07/01 02:58:08;;;;;;;15.05;6.95;;;;;;;17.98;64.12;100475.28;4987995;28;20559;-61
2021/07/01 03:00:35;;;;;;;14.10;7.95;;;;;;;17.89;63.88;100483.78;4989795;28;20113;-61
2021/07/01 03:03:02;;;;;;;20.65;8.45;;;;;;;17.46;63.89;100436.50;4974145;28;20055;-61
2021/07/01 03:05:29;;;;;;;16.67;8.73;;;;;;;17.83;64.38;100509.69;4988037;28;20077;-59
2021/07/01 03:07:56;;;;;;;16.98;7.13;;;;;;;17.95;64.42;100527.66;4988196;28;20172;-59
2021/07/01 03:10:22;;;;;;;13.80;6.35;;;;;;;17.98;64.55;100503.53;4997043;28;20126;-58
2021/07/01 03:12:49;;;;;;;17.63;7.00;;;;;;;18.10;64.04;100495.25;4985532;28;20047;-58
2021/07/01 03:15:16;;;;;;;18.05;7.68;;;;;;;18.05;64.30;100480.44;4986177;28;20134;-60
2021/07/01 03:17:43;;;;;;;17.63;7.95;;;;;;;18.17;63.92;100506.88;4974540;28;20487;-60
2021/07/01 03:20:10;;;;;;;14.15;7.75;;;;;;;18.25;63.82;100513.69;4985578;28;20130;-60
2021/07/01 03:22:37;;;;;;;14.60;7.82;;;;;;;18.27;64.05;100522.66;4990982;28;20447;-63
2021/07/01 03:25:05;;;;;;;17.65;7.68;;;;;;;18.26;64.14;100539.97;4977451;28;20079;-62
2021/07/01 03:27:32;;;;;;;18.58;8.77;;;;;;;18.24;63.79;100524.16;4984201;28;20141;-60
2021/07/01 03:29:59;;;;;;;20.10;8.55;;;;;;;18.00;64.07;100456.00;4990389;28;20043;-60
2021/07/01 03:32:26;;;;;;;17.98;7.63;;;;;;;18.27;63.91;100476.63;4987301;28;20479;-60
2021/07/01 03:34:53;;;;;;;19.80;8.70;;;;;;;18.30;63.65;100470.31;4993496;28;20154;-59
2021/07/01 03:37:20;;;;;;;20.02;8.85;;;;;;;18.24;63.91;100484.59;4992701;28;20129;-60
2021/07/01 03:39:46;;;;;;;16.05;8.25;;;;;;;18.28;63.95;100512.19;4987390;28;20106;-64
2021/07/01 03:42:15;;;;;;;14.88;7.63;;;;;;;18.14;64.20;100499.06;4988454;28;20049;-64
2021/07/01 03:44:42;;;;;;;19.60;8.85;;;;;;;17.99;63.93;100499.56;4991740;28;20058;-63
2021/07/01 03:47:10;;;;;;;16.95;7.45;;;;;;;17.94;64.28;100506.19;4979060;28;20138;-62
2021/07/01 03:49:37;;;;;;;16.33;7.35;;;;;;;17.89;64.46;100505.53;4987677;28;20054;-61
2021/07/01 03:52:04;;;;;;;16.23;7.93;;;;;;;17.92;64.53;100483.13;4988988;28;20129;-62
2021/07/01 03:54:31;;;;;;;13.30;7.15;;;;;;;18.05;64.77;100486.94;4991309;28;20074;-61
2021/07/01 03:56:59;;;;;;;16.00;7.13;;;;;;;18.14;64.66;100479.28;4994304;28;20058;-61
2021/07/01 03:59:26;;;;;;;12.82;6.30;;;;;;;18.28;64.20;100466.97;4995106;28;20380;-61
2021/07/01 04:01:53;;;;;;;13.70;7.15;;;;;;;18.39;64.42;100471.94;4992860;28;20471;-61
2021/07/01 04:04:20;;;;;;;13.98;8.18;;;;;;;18.44;63.83;100466.09;4983680;28;20089;-61
2021/07/01 04:06:47;;;;;;;14.88;7.82;;;;;;;18.47;64.17;100470.25;4976701;28;20061;-60
2021/07/01 04:09:13;;;;;;;13.73;6.93;;;;;;;18.46;63.93;100491.19;4985413;28;20125;-61
2021/07/01 04:11:40;;;;;;;12.82;6.95;;;;;;;18.41;63.93;100503.53;4989986;28;20047;-61
2021/07/01 04:14:08;;;;;;;12.05;7.38;;;;;;;18.49;63.73;100524.47;4989960;28;20450;-61
2021/07/01 04:16:34;;;;;;;16.63;7.90;;;;;;;18.50;63.95;100537.47;4984578;28;20491;-61
2021/07/01 04:19:02;;;;;;;19.25;8.93;;;;;;;18.51;63.83;100544.78;4985537;28;20104;-61
2021/07/01 04:21:28;;;;;;;16.60;9.50;;;;;;;18.53;63.94;100553.78;4980991;28;20070;-62
2021/07/01 04:23:57;;;;;;;18.25;9.35;;;;;;;18.49;64.01;100552.75;5003973;28;20498;-64
2021/07/01 04:26:25;;;;;;;18.50;9.88;;;;;;;18.30;63.99;100509.88;4985028;28;20074;-65
2021/07/01 04:28:52;;;;;;;16.95;8.52;;;;;;;18.53;63.78;100536.81;4993225;28;20064;-63
2021/07/01 04:31:20;;;;;;;14.98;8.65;;;;;;;18.52;63.93;100535.13;4981065;28;20077;-63
2021/07/01 04:33:47;;;;;;;22.67;9.98;;;;;;;18.46;64.12;100530.78;4986727;28;20487;-62
2021/07/01 04:36:14;;;;;;;16.77;8.52;;;;;;;18.50;63.73;100553.59;4985656;28;20074;-61
2021/07/01 04:38:41;;;;;;;19.80;9.18;;;;;;;18.45;63.98;100560.25;4988393;28;20129;-62
2021/07/01 04:41:08;;;;;;;20.58;9.65;;;;;;;18.33;64.33;100560.94;4983705;28;20167;-63
2021/07/01 04:43:35;;;;;;;27.58;10.13;;;;;;;18.34;64.23;100573.06;4979726;28;20141;-62
2021/07/01 04:46:02;;;;;;;20.02;9.35;;;;;;;18.30;64.42;100569.25;4983154;28;20457;-62
2021/07/01 04:48:29;;;;;;;23.60;10.15;;;;;;;18.30;64.40;100567.25;4986401;28;20098;-60
2021/07/01 04:50:56;;;;;;;24.33;11.85;;;;;;;18.33;64.77;100560.09;4975376;28;20145;-60
2021/07/01 04:53:23;;;;;;;24.98;10.05;;;;;;;18.38;64.49;100557.91;4986868;28;20130;-61
2021/07/01 04:55:50;;;;;;;17.90;9.35;;;;;;;18.40;64.55;100561.25;4981026;28;20528;-61
2021/07/01 04:58:16;;;;;;;19.77;9.38;;;;;;;18.42;64.52;100569.38;4991687;28;20134;-61
2021/07/01 05:00:45;;;;;;;17.85;9.05;;;;;;;18.43;64.04;100576.72;4994197;28;20046;-63
2021/07/01 05:03:12;;;;;;;21.85;9.93;;;;;;;18.28;63.98;100555.41;4992830;28;20141;-62
2021/07/01 05:05:39;;;;;;;18.77;8.82;;;;;;;18.46;64.19;100587.34;5002615;28;20084;-59
2021/07/01 05:08:06;;;;;;;19.95;9.52;;;;;;;18.35;64.02;100577.53;4988155;28;20130;-61
2021/07/01 05:10:33;;;;;;;16.40;8.77;;;;;;;18.39;64.37;100589.84;4983508;28;20460;-62
2021/07/01 05:13:04;;;;;;;18.92;9.23;;;;;;;18.34;64.07;100587.19;4975055;28;20051;-61
2021/07/01 05:15:31;;;;;;;17.08;8.52;;;;;;;18.28;64.40;100575.22;4977343;28;20042;-59
2021/07/01 05:17:58;;;;;;;20.48;9.48;;;;;;;18.38;64.27;100571.22;4991081;28;20464;-66
2021/07/01 05:20:25;;;;;;;20.90;9.50;;;;;;;18.41;63.82;100568.56;4979613;28;20077;-65
2021/07/01 05:22:51;;;;;;;15.80;8.35;;;;;;;18.22;64.00;100542.59;4982107;28;20050;-68
2021/07/01 05:25:18;;;;;;;19.73;8.98;;;;;;;18.15;64.33;100553.59;4985049;28;20125;-65
2021/07/01 05:27:45;;;;;;;17.80;9.02;;;;;;;18.07;64.26;100543.94;4981071;28;21945;-66
2021/07/01 05:30:12;;;;;;;17.20;9.75;;;;;;;17.83;64.24;100518.16;4981404;28;20070;-66
2021/07/01 05:32:39;;;;;;;16.55;9.07;;;;;;;17.84;64.35;100536.75;4992739;28;20046;-65
2021/07/01 05:35:07;;;;;;;20.15;10.40;;;;;;;17.79;64.53;100522.81;5002672;28;20082;-66
2021/07/01 05:37:34;;;;;;;17.70;9.57;;;;;;;17.89;64.51;100540.28;4992585;28;20422;-65
2021/07/01 05:40:04;;;;;;;21.20;9.50;;;;;;;17.92;64.29;100533.13;4979837;28;20553;-60
2021/07/01 05:42:31;;;;;;;19.83;9.40;;;;;;;17.98;64.09;100543.09;4977414;28;20050;-70
2021/07/01 05:45:01;;;;;;;17.38;10.25;;;;;;;17.89;64.73;100539.44;4987157;28;20057;-60
2021/07/01 05:47:29;;;;;;;15.85;8.98;;;;;;;17.67;64.84;100535.53;4989750;28;20140;-61
2021/07/01 05:49:57;;;;;;;16.25;9.32;;;;;;;17.63;65.06;100547.81;4977489;28;20109;-62
2021/07/01 05:52:27;;;;;;;17.85;9.85;;;;;;;17.57;65.49;100549.13;4981917;28;20108;-62
2021/07/01 05:54:57;;;;;;;17.00;8.25;;;;;;;17.60;65.38;100549.31;4978983;28;20057;-62
2021/07/01 05:57:25;;;;;;;16.52;9.05;;;;;;;17.62;65.21;100541.34;4982963;28;20130;-62
2021/07/01 05:59:52;;;;;;;20.00;8.77;;;;;;;17.71;65.13;100535.75;4982107;28;20082;-62
2021/07/01 06:02:19;;;;;;;17.40;8.82;;;;;;;17.69;65.58;100529.56;4976426;28;20053;-62
2021/07/01 06:04:46;;;;;;;24.35;9.50;;;;;;;17.63;65.41;100520.41;4982579;28;20136;-62
2021/07/01 06:07:31;;;;;;;17.08;8.35;;;;;;;17.60;65.48;100528.72;4987745;28;20553;-61
2021/07/01 06:10:02;;;;;;;19.73;9.68;;;;;;;17.64;65.26;100539.03;4984728;28;20129;-62
2021/07/01 06:12:31;;;;;;;16.83;8.10;;;;;;;17.61;65.89;100541.69;4990418;28;20133;-61
2021/07/01 06:14:59;;;;;;;15.00;8.05;;;;;;;17.45;65.58;100522.38;4985292;28;20093;-62
2021/07/01 06:17:28;;;;;;;18.40;9.35;;;;;;;17.39;66.35;100551.06;4988027;28;20070;-61
2021/07/01 06:19:55;;;;;;;17.95;7.63;;;;;;;17.15;67.32;100549.47;4990922;28;20471;-62
2021/07/01 06:22:23;;;;;;;19.33;8.65;;;;;;;17.06;67.41;100551.44;4989348;28;20043;-61
2021/07/01 06:24:54;;;;;;;21.23;9.23;;;;;;;16.77;67.77;100515.28;4991925;28;20043;-61
2021/07/01 06:27:28;;;;;;;18.42;7.88;;;;;;;17.01;67.53;100543.09;4990436;28;20077;-61
2021/07/01 06:29:55;;;;;;;16.83;8.68;;;;;;;17.11;67.68;100559.75;4990332;28;20078;-61
2021/07/01 06:32:22;;;;;;;15.10;7.05;;;;;;;17.12;67.43;100561.41;4992111;28;20086;-61
2021/07/01 06:34:49;;;;;;;15.88;8.05;;;;;;;17.02;67.75;100545.59;4981032;28;20462;-61
2021/07/01 06:37:17;;;;;;;20.83;8.57;;;;;;;16.98;67.62;100541.75;4991946;28;20487;-62
2021/07/01 06:39:47;;;;;;;15.25;7.05;;;;;;;16.89;68.17;100537.22;4984972;28;20110;-62
2021/07/01 06:42:18;;;;;;;19.95;8.00;;;;;;;17.00;67.64;100549.91;4980563;28;20117;-62
2021/07/01 06:44:46;;;;;;;18.15;8.85;;;;;;;16.99;67.81;100562.34;4977961;28;20109;-62
2021/07/01 06:47:14;;;;;;;17.02;8.02;;;;;;;17.06;67.47;100559.91;4980491;28;20047;-61
2021/07/01 06:49:43;;;;;;;18.33;9.63;;;;;;;16.96;68.00;100557.38;4984799;28;20046;-63
2021/07/01 06:52:13;;;;;;;13.85;7.82;;;;;;;17.10;67.54;100557.28;4963840;28;20125;-62
2021/07/01 06:54:40;;;;;;;13.98;7.45;;;;;;;17.46;67.20;100559.91;4981366;28;20100;-62
2021/07/01 06:57:07;;;;;;;18.95;8.45;;;;;;;17.90;66.13;100572.19;4980753;28;20070;-62
2021/07/01 06:59:35;;;;;;;20.23;9.27;;;;;;;18.02;65.67;100541.28;4981499;28;20053;-62
2021/07/01 07:02:03;;;;;;;16.27;8.52;;;;;;;18.22;65.18;100560.44;4979073;28;20050;-61
2021/07/01 07:04:33;;;;;;;14.73;8.73;;;;;;;18.30;65.13;100560.75;4983675;28;20062;-63
2021/07/01 07:07:04;;;;;;;13.43;7.60;;;;;;;18.30;65.18;100569.25;4986206;28;20351;-63
2021/07/01 07:09:31;;;;;;;14.30;8.13;;;;;;;18.17;64.88;100568.22;4979055;28;20394;-63
2021/07/01 07:11:58;;;;;;;14.60;7.45;;;;;;;18.17;64.96;100565.41;4980787;28;20109;-62
2021/07/01 07:14:26;;;;;;;13.82;7.95;;;;;;;18.11;64.94;100570.38;4976325;28;20046;-63
2021/07/01 07:16:57;;;;;;;16.63;9.00;;;;;;;18.04;64.79;100558.72;4982678;28;20058;-63
2021/07/01 07:19:27;;;;;;;12.55;7.43;;;;;;;18.21;64.57;100570.03;4987690;28;20097;-63
2021/07/01 07:21:55;;;;;;;18.13;8.73;;;;;;;18.34;64.36;100578.72;4991293;28;20108;-63
2021/07/01 07:24:28;;;;;;;17.10;9.70;;;;;;;18.46;64.28;100576.03;4991066;28;20086;-63
2021/07/01 07:26:56;;;;;;;16.35;8.73;;;;;;;18.80;63.82;100560.22;4990114;28;20104;-63
2021/07/01 07:29:32;;;;;;;19.33;9.38;;;;;;;19.14;62.82;100579.97;4975030;28;20132;-63
2021/07/01 07:32:03;;;;;;;16.85;8.50;;;;;;;19.38;62.35;100568.06;4977051;28;20126;-65
2021/07/01 07:34:32;;;;;;;12.82;7.95;;;;;;;19.84;61.75;100574.00;4986671;28;20057;-64
2021/07/01 07:37:00;;;;;;;15.10;8.20;;;;;;;20.31;60.88;100582.34;4986136;28;20047;-64
2021/07/01 07:39:29;;;;;;;11.95;7.55;;;;;;;20.62;60.49;100579.13;4974569;28;20138;-68
2021/07/01 07:41:56;;;;;;;15.10;7.90;;;;;;;20.92;59.77;100559.97;4973653;28;20047;-67
2021/07/01 07:44:23;;;;;;;14.85;8.27;;;;;;;21.11;59.07;100589.81;4980363;28;20133;-65
2021/07/01 07:46:51;;;;;;;19.42;8.13;;;;;;;21.05;59.02;100589.19;4991378;28;20125;-64
2021/07/01 07:49:19;;;;;;;17.80;7.72;;;;;;;21.17;58.94;100589.25;4982720;28;20126;-64
2021/07/01 07:51:51;;;;;;;13.38;8.25;;;;;;;21.43;58.28;100600.31;4986773;28;20074;-63
2021/07/01 07:54:22;;;;;;;12.02;7.50;;;;;;;21.28;57.91;100592.44;4975611;28;20592;-63
2021/07/01 07:56:54;;;;;;;10.80;5.97;;;;;;;21.20;58.06;100605.56;4978914;28;20054;-64
2021/07/01 07:59:26;;;;;;;12.48;7.65;;;;;;;21.21;58.06;100604.38;4978094;28;20177;-66
2021/07/01 08:01:53;;;;;;;12.20;7.40;;;;;;;21.45;57.52;100615.00;4978649;28;20047;-74
2021/07/01 08:04:22;;;;;;;15.60;6.82;;;;;;;21.99;56.59;100605.44;4985992;28;20047;-73
2021/07/01 08:06:50;;;;;;;13.68;7.82;;;;;;;22.68;55.58;100612.88;4985664;28;20485;-71
2021/07/01 08:09:18;;;;;;;22.98;7.50;;;;;;;23.22;55.05;100610.78;4981425;28;20074;-72
2021/07/01 08:11:47;;;;;;;12.05;6.13;;;;;;;23.81;53.67;100589.97;4980845;28;20046;-72
2021/07/01 08:14:15;;;;;;;16.25;6.70;;;;;;;24.50;52.66;100596.06;4982121;28;20129;-74
2021/07/01 08:16:44;;;;;;;10.10;6.20;;;;;;;24.68;52.05;100597.28;4986383;28;20089;-74
2021/07/01 08:19:11;;;;;;;13.43;7.15;;;;;;;24.72;51.69;100600.22;4981208;28;20081;-73
2021/07/01 08:21:38;;;;;;;12.60;6.97;;;;;;;25.05;50.86;100608.22;4992684;28;20074;-73
2021/07/01 08:24:08;;;;;;;11.75;6.78;;;;;;;25.19;50.30;100597.09;4986442;28;20133;-73
2021/07/01 08:26:35;;;;;;;;;;;;;;;25.49;51.96;100599.28;4989400;28;20043;-76
2021/07/01 08:29:03;;;;;;;11.57;6.30;;;;;;;26.09;49.62;100590.94;4988893;28;20020;-75
2021/07/01 08:31:32;;;;;;;11.77;6.60;;;;;;;26.20;48.43;100580.47;4986024;28;20119;-73
2021/07/01 08:34:06;;;;;;;10.70;5.60;;;;;;;25.82;48.82;100554.94;4990003;28;20073;-67
2021/07/01 08:36:35;;;;;;;13.23;6.85;;;;;;;25.86;48.27;100593.00;4979804;28;20081;-66
2021/07/01 08:39:07;;;;;;;14.77;6.20;;;;;;;25.60;48.35;100588.03;4987015;28;20078;-67
2021/07/01 08:41:34;;;;;;;11.68;5.78;;;;;;;25.62;48.18;100600.75;4987611;28;20078;-68
2021/07/01 08:44:06;;;;;;;11.35;6.85;;;;;;;25.59;48.04;100587.22;4976307;28;20050;-68
2021/07/01 08:46:54;;;;;;;14.93;7.35;;;;;;;25.58;47.69;100599.88;4978708;28;20082;-66
2021/07/01 08:49:51;;;;;;;17.00;8.35;;;;;;;25.64;48.15;100592.63;4980069;28;20039;-66
2021/07/01 08:52:22;;;;;;;7.97;5.13;;;;;;;26.18;47.22;100591.47;4984973;28;20511;-62
2021/07/01 08:55:06;;;;;;;14.07;5.75;;;;;;;26.44;46.21;100578.34;5002746;28;20046;-70
2021/07/01 08:57:36;;;;;;;11.50;6.60;;;;;;;27.00;45.54;100586.03;4980737;28;20467;-69
2021/07/01 09:00:10;;;;;;;9.50;6.65;;;;;;;27.50;44.93;100583.72;4984536;28;20042;-77
2021/07/01 09:02:40;;;;;;;12.80;6.28;;;;;;;27.86;44.11;100578.31;4997386;28;20518;-79
2021/07/01 09:05:13;;;;;;;14.00;7.07;;;;;;;27.56;43.61;100556.31;4987546;28;20092;-71
2021/07/01 09:07:47;;;;;;;11.80;6.50;;;;;;;27.38;43.75;100593.44;4981442;28;20089;-70
2021/07/01 09:10:15;;;;;;;11.60;6.05;;;;;;;27.55;43.53;100588.25;5002895;28;20172;-71
2021/07/01 09:12:48;;;;;;;7.78;5.57;;;;;;;27.92;43.00;100581.63;4977381;28;20086;-73
2021/07/01 09:15:16;;;;;;;9.60;6.68;;;;;;;28.34;42.70;100586.81;4986721;28;20074;-76
2021/07/01 09:17:48;;;;;;;10.68;5.85;;;;;;;28.73;42.03;100594.88;4990164;28;20046;-76
2021/07/01 09:20:19;;;;;;;12.30;6.00;;;;;;;28.91;41.56;100587.13;4988198;28;20150;-70
2021/07/01 09:22:48;;;;;;;7.32;5.13;;;;;;;28.61;41.33;100583.72;4988010;28;20054;-71
2021/07/01 09:25:16;;;;;;;12.30;6.32;;;;;;;28.30;41.57;100591.72;4991427;28;20137;-71
2021/07/01 09:27:47;;;;;;;10.18;6.10;;;;;;;28.26;41.90;100573.66;4989696;28;20042;-73
2021/07/01 09:30:16;;;;;;;11.70;5.85;;;;;;;27.97;41.51;100593.56;4985678;28;20125;-62
2021/07/01 09:32:43;;;;;;;11.40;6.38;;;;;;;27.76;41.95;100579.03;4985880;28;20049;-65
2021/07/01 09:35:12;;;;;;;10.75;6.47;;;;;;;28.13;41.61;100580.97;4979108;28;20126;-66
2021/07/01 09:37:46;;;;;;;13.88;5.90;;;;;;;28.68;41.30;100586.63;4979956;28;20105;-63
2021/07/01 09:40:20;;;;;;;10.00;7.20;;;;;;;29.02;40.75;100562.13;4982378;28;20073;-66
2021/07/01 09:42:59;;;;;;;9.65;6.03;;;;;;;29.16;40.73;100572.03;4991066;28;20077;-63
2021/07/01 09:45:27;;;;;;;10.30;5.90;;;;;;;29.28;40.24;100577.41;4992418;28;20046;-65
2021/07/01 09:48:10;;;;;;;12.57;7.88;;;;;;;29.40;40.23;100579.91;4982729;28;20125;-64
2021/07/01 09:50:44;;;;;;;11.73;6.88;;;;;;;29.08;40.43;100574.06;4992328;28;20070;-63
2021/07/01 09:53:20;;;;;;;11.20;7.82;;;;;;;28.76;41.01;100576.81;4985143;28;20073;-67
2021/07/01 09:55:51;;;;;;;15.45;7.32;;;;;;;28.51;41.27;100566.06;4981568;28;20126;-63
2021/07/01 09:58:20;;;;;;;11.68;7.65;;;;;;;28.98;40.84;100578.53;4979884;28;20130;-63
2021/07/01 10:00:52;;;;;;;11.80;7.13;;;;;;;29.29;40.74;100579.03;4990251;28;20080;-64
2021/07/01 10:03:19;;;;;;;13.65;5.97;;;;;;;29.13;40.18;100570.81;4976797;28;20141;-65
2021/07/01 10:05:46;;;;;;;10.43;6.18;;;;;;;28.61;40.90;100580.84;4981345;28;20050;-69
2021/07/01 10:08:13;;;;;;;13.73;5.95;;;;;;;27.86;41.92;100586.91;4978672;28;20142;-69
2021/07/01 10:10:49;;;;;;;10.85;6.57;;;;;;;27.11;42.75;100577.53;4981123;28;20270;-69
2021/07/01 10:13:18;;;;;;;18.35;6.43;;;;;;;27.36;43.48;100578.66;4984189;28;20073;-70
2021/07/01 10:15:48;;;;;;;11.32;6.43;;;;;;;27.64;42.83;100563.75;4980168;28;20413;-69
2021/07/01 10:18:18;;;;;;;9.98;6.43;;;;;;;27.77;42.57;100583.56;4992831;28;20052;-69
2021/07/01 10:20:57;;;;;;;14.52;7.38;;;;;;;27.96;42.06;100582.47;4985202;28;20042;-67
2021/07/01 10:23:31;;;;;;;10.20;6.00;;;;;;;28.45;41.62;100587.75;4988443;28;20081;-68
2021/07/01 10:26:08;;;;;;;9.77;7.13;;;;;;;28.45;41.10;100587.75;5001492;28;20085;-68
2021/07/01 10:28:36;;;;;;;11.35;6.38;;;;;;;28.51;41.27;100568.94;4993526;28;20639;-69
2021/07/01 10:31:11;;;;;;;12.57;6.13;;;;;;;28.97;41.12;100565.41;4984034;28;20137;-68
2021/07/01 10:33:41;;;;;;;10.65;6.30;;;;;;;29.41;40.24;100563.47;4990803;28;20054;-66
2021/07/01 10:36:24;;;;;;;12.90;5.82;;;;;;;29.73;40.21;100549.09;4981055;28;20149;-64
2021/07/01 10:38:53;;;;;;;10.60;6.25;;;;;;;29.82;39.53;100560.22;4983329;28;20538;-69
2021/07/01 10:41:33;;;;;;;12.43;6.50;;;;;;;29.50;39.85;100564.72;4991849;28;20125;-69
2021/07/01 10:44:04;;;;;;;12.82;7.20;;;;;;;29.13;39.68;100569.97;4993029;28;20105;-67
2021/07/01 10:46:43;;;;;;;13.25;6.53;;;;;;;29.12;40.18;100572.03;4989710;28;20120;-68
2021/07/01 10:49:12;;;;;;;12.20;6.00;;;;;;;29.16;40.26;100572.88;4991028;28;20137;-73
2021/07/01 10:51:58;;;;;;;16.30;6.93;;;;;;;29.35;40.07;100568.78;4990159;28;20101;-65
2021/07/01 10:54:26;;;;;;;12.40;6.55;;;;;;;29.48;39.34;100570.03;4990234;28;20082;-65
2021/07/01 10:57:10;;;;;;;8.57;5.38;;;;;;;29.48;39.52;100575.78;4983106;28;20442;-66
2021/07/01 11:00:05;;;;;;;13.13;6.60;;;;;;;29.17;40.33;100573.69;4981642;28;20124;-66
2021/07/01 11:02:32;;;;;;;11.65;6.25;;;;;;;29.38;39.43;100579.47;4978189;28;20046;-66
2021/07/01 11:05:04;;;;;;;13.25;6.65;;;;;;;29.36;39.77;100566.72;4981065;28;20074;-66
2021/07/01 11:07:44;;;;;;;11.95;6.38;;;;;;;29.09;39.86;100557.66;4983612;28;20125;-66
2021/07/01 11:10:32;;;;;;;9.23;5.35;;;;;;;29.17;39.96;100560.13;4976196;28;20054;-66
2021/07/01 11:13:05;;;;;;;12.98;6.85;;;;;;;29.40;39.30;100568.41;4981072;28;20130;-66
2021/07/01 11:15:33;;;;;;;13.45;6.70;;;;;;;29.43;39.38;100573.31;4984534;28;20061;-66
2021/07/01 11:18:09;;;;;;;9.43;5.40;;;;;;;29.72;39.30;100568.44;4977443;28;20514;-66
2021/07/01 11:20:36;;;;;;;11.02;5.97;;;;;;;29.57;39.24;100583.19;4981996;28;20133;-75
2021/07/01 11:23:03;;;;;;;10.75;6.30;;;;;;;29.11;39.56;100584.75;4978375;28;20051;-75
2021/07/01 11:25:36;;;;;;;9.52;5.78;;;;;;;29.09;40.13;100572.03;4989503;28;20078;-65